Flight Track Log - Related Links

Times and Time Zones

All times are in EDT time to prevent confusion due to time zone crossing. See the AWE2180 flight status page for this flight to view local times or setup timezone preferences in your user account.

Time Position Orientation Groundspeed Altitude Reporting Facility
EDT Latitude Longitude Course Direction KTS MPH feet Rate Location/Type
Mon 05:46:38 PM 38.7672 -77.0214 90° East 177 204 4,900  Level Washington Center
Mon 05:47:00 PM 38.9366 -76.6736 67° East  Level FlightAware Approximate
Mon 05:47:38 PM 38.7786 -76.9444 79° East 146 168 7,300  Level Washington Center
Mon 05:48:00 PM 38.9751 -76.5496 72° East  Level FlightAware Approximate
Mon 05:48:38 PM 38.8419 -76.8764 40° Northeast 184 212 10,700  Level Washington Center
Mon 05:49:00 PM 39.0045 -76.4214 74° East  Level FlightAware Approximate
Mon 05:49:38 PM 38.9053 -76.7814 49° Northeast 260 299 12,600  Level Washington Center
Mon 05:50:00 PM 39.0167 -76.2899 90° East  Level FlightAware Approximate
Mon 05:50:38 PM 38.9483 -76.6458 68° East 352 405 15,600  Level Washington Center
Mon 05:51:00 PM 39.0333 -76.1588 90° East  Level FlightAware Approximate
Mon 05:51:38 PM 38.9911 -76.5075 68° East 379 436 19,000  Level Washington Center
Mon 05:52:38 PM 39.0297 -76.3639 71° East 398 458 21,000 1,000 Climbing Washington Center
Mon 05:53:38 PM 39.0389 -76.2169 85° East 408 470 21,000  Level Washington Center
Mon 05:54:38 PM 39.0458 -76.0619 87° East 419 482 21,000  Level Washington Center
Mon 05:55:38 PM 39.0506 -75.9069 88° East 425 489 21,000  Level Washington Center
Mon 05:56:38 PM 39.0653 -75.7519 83° East 430 495 21,000  Level Washington Center
Mon 05:57:38 PM 39.1447 -75.6344 49° Northeast 403 464 21,000  Level Washington Center
Mon 05:58:38 PM 39.2197 -75.5353 46° Northeast 395 455 21,000  Level Washington Center
Mon 05:59:38 PM 39.2967 -75.4575 38° Northeast 367 422 21,000  Level Washington Center
Mon 06:00:38 PM 39.3800 -75.3875 33° Northeast 357 411 21,000  Level Washington Center
Mon 06:01:38 PM 39.4589 -75.3147 35° Northeast 352 405 21,000  Level Washington Center
Mon 06:02:38 PM 39.5400 -75.2417 35° Northeast 352 405 21,000 -150 Level Washington Center
Mon 06:03:38 PM 39.6253 -75.1767 30° Northeast 352 405 20,700 -1,050 Descending Washington Center
Mon 06:04:38 PM 39.7189 -75.1492 13° North 338 389 18,900 -1,850 Descending Washington Center
Mon 06:05:38 PM 39.8061 -75.0836 30° Northeast 322 371 17,000 -1,950 Descending Washington Center
Mon 06:06:38 PM 39.8578 -74.9994 51° Northeast 320 368 15,000 -1,986 Descending Washington Center
Mon 06:08:00 PM 39.9500 -74.8667 48° Northeast 327 376 12,300 -1,732 Descending New York TRACON
Mon 06:09:00 PM 40.0167 -74.7667 49° Northeast 348 400 10,900 -950 Descending New York TRACON
Mon 06:10:00 PM 40.0833 -74.6833 44° Northeast 348 400 10,400 -450 Descending New York TRACON
Mon 06:11:00 PM 40.1500 -74.5833 49° Northeast 346 398 10,000 -200 Descending New York TRACON
Mon 06:12:00 PM 40.2000 -74.4833 57° Northeast 344 396 10,000  Level New York TRACON
Mon 06:13:00 PM 40.2667 -74.4000 44° Northeast 327 376 10,000 -800 Level New York TRACON
Mon 06:14:00 PM 40.3333 -74.3333 37° Northeast 302 348 8,400 -1,450 Descending New York TRACON
Mon 06:15:00 PM 40.4000 -74.2500 44° Northeast 304 350 7,100 -842 Descending New York TRACON
Mon 06:15:54 PM 40.4500 -74.1833 45° Northeast 299 344 6,800 -947 Descending New York TRACON
Mon 06:16:54 PM 40.5167 -74.1167 37° Northeast 286 329 5,300 -1,333 Descending New York TRACON
Mon 06:18:00 PM 40.5833 -74.0667 30° Northeast 280 322 4,000 -619 Descending New York TRACON
Mon 06:19:00 PM 40.6667 -74.0333 17° North 282 325 4,000  Level New York TRACON
Mon 06:20:00 PM 40.7333 -74.0167 11° North 276 318 4,000 -300 Level New York TRACON
Mon 06:21:00 PM 40.8000 -73.9833 21° North 267 307 3,400 -500 Descending New York TRACON
Mon 06:22:00 PM 40.8500 -73.9167 45° Northeast 229 264 3,000 -667 Descending New York TRACON
Mon 06:23:06 PM 40.9000 -73.8667 37° Northeast 212 244 2,000 -476 Descending New York TRACON
Mon 06:24:06 PM 40.8833 -73.8167 114° Southeast 181 208 2,000  Level New York TRACON

Login

Don't have an account? Register now (free) for customized features, flight alerts, and more!